createdAt,value
2017-03-12T00:00:23.573Z,0
2017-03-12T00:01:04.162Z,0
2017-03-12T00:01:44.762Z,0
2017-03-12T00:02:25.414Z,0
2017-03-12T00:03:05.978Z,0
2017-03-12T00:03:46.579Z,0
2017-03-12T00:04:27.263Z,0
2017-03-12T00:05:07.926Z,0
2017-03-12T00:05:48.486Z,0
2017-03-12T00:06:29.085Z,0
2017-03-12T00:07:09.780Z,0
2017-03-12T00:07:50.432Z,0
2017-03-12T00:08:30.986Z,0
2017-03-12T00:09:11.594Z,0
2017-03-12T00:09:52.938Z,0
2017-03-12T00:10:33.618Z,0
2017-03-12T00:11:14.258Z,0
2017-03-12T00:11:54.903Z,0
2017-03-12T00:12:35.561Z,0
2017-03-12T00:13:16.221Z,0
2017-03-12T00:13:56.875Z,0
2017-03-12T00:14:37.534Z,0
2017-03-12T00:15:18.196Z,0
2017-03-12T00:15:58.837Z,0
2017-03-12T00:16:39.503Z,0
2017-03-12T00:17:20.140Z,0
2017-03-12T00:18:00.797Z,0
2017-03-12T00:18:41.444Z,0
2017-03-12T00:19:22.015Z,0
2017-03-12T00:20:02.619Z,0
2017-03-12T00:20:43.390Z,0
2017-03-12T00:21:23.953Z,0
2017-03-12T00:22:04.520Z,0
2017-03-12T00:22:45.113Z,0
2017-03-12T00:23:25.708Z,0
2017-03-12T00:24:06.361Z,0
2017-03-12T00:24:47.020Z,0
2017-03-12T00:25:27.664Z,0
2017-03-12T00:26:08.318Z,0
2017-03-12T00:26:48.890Z,0
2017-03-12T00:27:29.512Z,0
2017-03-12T00:28:10.186Z,0
2017-03-12T00:28:50.833Z,0
2017-03-12T00:29:31.396Z,0
2017-03-12T00:30:12.002Z,0
2017-03-12T00:30:52.584Z,0
2017-03-12T00:31:33.238Z,0
2017-03-12T00:32:13.806Z,0
2017-03-12T00:32:54.422Z,0
2017-03-12T00:33:35.105Z,0
2017-03-12T00:34:15.756Z,0
2017-03-12T00:34:56.424Z,0
2017-03-12T00:35:37.052Z,0
2017-03-12T00:36:17.705Z,0
2017-03-12T00:36:58.354Z,0
2017-03-12T00:37:39.050Z,0
2017-03-12T00:38:19.681Z,0
2017-03-12T00:39:00.242Z,0
2017-03-12T00:39:40.913Z,0
2017-03-12T00:40:21.512Z,0
2017-03-12T00:41:02.172Z,0
2017-03-12T00:41:42.726Z,0
2017-03-12T00:42:23.336Z,0
2017-03-12T00:43:03.925Z,0
2017-03-12T00:43:44.578Z,0
2017-03-12T00:44:25.147Z,0
2017-03-12T00:45:05.783Z,0
2017-03-12T00:45:46.433Z,0
2017-03-12T00:46:27.087Z,0
2017-03-12T00:47:07.739Z,0
2017-03-12T00:47:48.394Z,0
2017-03-12T00:48:29.050Z,0
2017-03-12T00:49:09.701Z,0
2017-03-12T00:49:50.351Z,0
2017-03-12T00:50:31.034Z,0
2017-03-12T00:51:11.660Z,0
2017-03-12T00:51:52.310Z,0
2017-03-12T00:52:32.967Z,0
2017-03-12T00:53:13.622Z,0
2017-03-12T00:53:54.261Z,0
2017-03-12T00:54:34.927Z,0
2017-03-12T00:55:15.588Z,0
2017-03-12T00:55:56.232Z,0
2017-03-12T00:56:36.886Z,0
2017-03-12T00:57:17.545Z,0
2017-03-12T00:58:00.126Z,0
2017-03-12T00:58:40.793Z,0
2017-03-12T00:59:21.440Z,0
2017-03-12T01:00:02.084Z,0
2017-03-12T01:00:42.654Z,0
2017-03-12T01:01:23.291Z,0
2017-03-12T01:02:03.912Z,0
2017-03-12T01:02:44.578Z,0
2017-03-12T01:03:25.208Z,0
2017-03-12T01:04:05.853Z,0
2017-03-12T01:04:46.487Z,0
2017-03-12T01:05:27.157Z,0
2017-03-12T01:06:07.816Z,0
2017-03-12T01:06:48.504Z,0
2017-03-12T01:07:29.190Z,0
2017-03-12T01:08:09.771Z,0
2017-03-12T01:08:50.463Z,0
2017-03-12T01:09:31.103Z,0
2017-03-12T01:10:11.729Z,0
2017-03-12T01:10:52.381Z,0
2017-03-12T01:11:33.031Z,0
2017-03-12T01:12:13.693Z,0
2017-03-12T01:12:54.343Z,0
2017-03-12T01:13:35.000Z,0
2017-03-12T01:14:15.645Z,0
2017-03-12T01:14:56.317Z,0
2017-03-12T01:15:36.954Z,0
2017-03-12T01:16:17.604Z,0
2017-03-12T01:16:58.265Z,0
2017-03-12T01:17:38.916Z,0
2017-03-12T01:18:20.493Z,0
2017-03-12T01:19:01.140Z,0
2017-03-12T01:19:41.740Z,0
2017-03-12T01:20:22.404Z,0
2017-03-12T01:21:02.959Z,0
2017-03-12T01:21:43.551Z,0
2017-03-12T01:22:24.156Z,0
2017-03-12T01:23:04.800Z,0
2017-03-12T01:23:45.415Z,0
2017-03-12T01:24:26.113Z,0
2017-03-12T01:25:06.768Z,0
2017-03-12T01:25:47.419Z,0
2017-03-12T01:26:28.071Z,0
2017-03-12T01:27:08.728Z,0
2017-03-12T01:27:49.374Z,0
2017-03-12T01:28:30.029Z,0
2017-03-12T01:29:10.687Z,0
2017-03-12T01:29:51.337Z,0
2017-03-12T01:30:31.990Z,0
2017-03-12T01:31:12.638Z,0
2017-03-12T01:31:53.298Z,0
2017-03-12T01:32:33.979Z,0
2017-03-12T01:33:14.710Z,0
2017-03-12T01:33:55.356Z,0
2017-03-12T01:34:35.906Z,0
2017-03-12T01:35:16.612Z,0
2017-03-12T01:35:57.214Z,0
2017-03-12T01:36:38.896Z,0
2017-03-12T01:37:19.443Z,0
2017-03-12T01:38:00.268Z,0
2017-03-12T01:38:40.865Z,0
2017-03-12T01:39:21.598Z,0
2017-03-12T01:40:02.258Z,0
2017-03-12T01:40:42.911Z,0
2017-03-12T01:41:23.562Z,0
2017-03-12T01:42:04.219Z,0
2017-03-12T01:42:44.871Z,0
2017-03-12T01:43:25.520Z,0
2017-03-12T01:44:06.176Z,0
2017-03-12T01:44:46.828Z,0
2017-03-12T01:45:27.483Z,0
2017-03-12T01:46:08.136Z,0
2017-03-12T01:46:48.789Z,0
2017-03-12T01:47:29.438Z,0
2017-03-12T01:48:10.091Z,72
2017-03-12T01:48:50.744Z,72
2017-03-12T01:49:31.399Z,0
2017-03-12T01:50:12.051Z,0
2017-03-12T01:50:53.731Z,0
2017-03-12T01:51:34.381Z,0
2017-03-12T01:52:15.051Z,0
2017-03-12T01:52:55.674Z,0
2017-03-12T01:53:36.343Z,0
2017-03-12T01:54:17.016Z,0
2017-03-12T01:54:57.648Z,0
2017-03-12T01:55:38.296Z,0
2017-03-12T01:56:18.949Z,0
2017-03-12T01:56:59.530Z,0
2017-03-12T01:57:40.155Z,0
2017-03-12T01:58:20.805Z,0
2017-03-12T01:59:01.466Z,0
2017-03-12T01:59:42.009Z,0
2017-03-12T02:00:22.608Z,0
2017-03-12T02:01:03.211Z,0
2017-03-12T02:01:43.866Z,0
2017-03-12T02:02:24.433Z,0
2017-03-12T02:03:05.014Z,0
2017-03-12T02:03:45.635Z,0
2017-03-12T02:04:26.281Z,0
2017-03-12T02:05:06.927Z,0
2017-03-12T02:05:47.582Z,0
2017-03-12T02:06:28.232Z,0
2017-03-12T02:07:08.882Z,0
2017-03-12T02:07:49.541Z,0
2017-03-12T02:08:30.200Z,0
2017-03-12T02:09:10.843Z,0
2017-03-12T02:09:51.393Z,0
2017-03-12T02:10:32.015Z,0
2017-03-12T02:11:12.696Z,0
2017-03-12T02:11:53.354Z,0
2017-03-12T02:12:33.906Z,0
2017-03-12T02:13:14.522Z,0
2017-03-12T02:13:55.096Z,0
2017-03-12T02:14:35.759Z,0
2017-03-12T02:15:16.415Z,0
2017-03-12T02:15:57.068Z,0
2017-03-12T02:16:37.719Z,0
2017-03-12T02:17:18.374Z,0
2017-03-12T02:17:59.024Z,0
2017-03-12T02:18:39.680Z,0
2017-03-12T02:19:20.264Z,0
2017-03-12T02:20:00.883Z,0
2017-03-12T02:20:41.545Z,0
2017-03-12T02:21:22.137Z,0
2017-03-12T02:22:02.735Z,0
2017-03-12T02:22:44.315Z,0
2017-03-12T02:23:24.883Z,0
2017-03-12T02:24:05.499Z,0
2017-03-12T02:24:46.174Z,0
2017-03-12T02:25:26.822Z,0
2017-03-12T02:26:07.480Z,0
2017-03-12T02:26:48.134Z,0
2017-03-12T02:27:28.782Z,0
2017-03-12T02:28:09.343Z,0
2017-03-12T02:28:49.978Z,0
2017-03-12T02:29:30.639Z,0
2017-03-12T02:30:11.306Z,0
2017-03-12T02:30:51.955Z,0
2017-03-12T02:33:05.207Z,0
2017-03-12T02:33:45.817Z,0
2017-03-12T02:34:26.480Z,0
2017-03-12T02:35:07.127Z,0
2017-03-12T02:35:47.772Z,0
2017-03-12T02:36:28.434Z,0
2017-03-12T02:37:09.087Z,0
2017-03-12T02:37:49.738Z,0
2017-03-12T02:38:30.386Z,0
2017-03-12T02:39:11.038Z,0
2017-03-12T02:39:51.708Z,0
2017-03-12T02:40:32.344Z,0
2017-03-12T02:41:13.009Z,0
2017-03-12T02:41:53.656Z,0
2017-03-12T02:42:34.298Z,0
2017-03-12T02:43:15.889Z,0
2017-03-12T02:43:57.464Z,0
2017-03-12T02:44:38.106Z,0
2017-03-12T02:45:18.773Z,0
2017-03-12T02:45:59.325Z,0
2017-03-12T02:46:39.915Z,0
2017-03-12T02:47:20.521Z,0
2017-03-12T02:48:01.169Z,0
2017-03-12T02:48:41.726Z,0
2017-03-12T02:49:22.321Z,0
2017-03-12T02:50:02.915Z,0
2017-03-12T02:50:43.580Z,0
2017-03-12T02:51:24.148Z,0
2017-03-12T02:52:04.720Z,0
2017-03-12T02:52:45.334Z,0
2017-03-12T02:53:25.986Z,0
2017-03-12T02:54:06.542Z,0
2017-03-12T02:54:47.132Z,0
2017-03-12T02:55:27.746Z,0
2017-03-12T02:56:08.398Z,0
2017-03-12T02:56:48.980Z,0
2017-03-12T02:57:29.672Z,0
2017-03-12T02:58:10.250Z,0
2017-03-12T02:58:50.904Z,0
2017-03-12T02:59:31.452Z,0
2017-03-12T03:00:12.064Z,0
2017-03-12T03:00:52.723Z,0
2017-03-12T03:01:33.347Z,0
2017-03-12T03:02:13.935Z,0
2017-03-12T03:02:54.575Z,0
2017-03-12T03:03:35.220Z,0
2017-03-12T03:04:15.872Z,0
2017-03-12T03:04:56.478Z,0
2017-03-12T03:05:37.127Z,0
2017-03-12T03:06:17.677Z,0
2017-03-12T03:06:58.283Z,0
2017-03-12T03:07:39.898Z,0
2017-03-12T03:08:20.556Z,0
2017-03-12T03:09:01.110Z,0
2017-03-12T03:09:41.760Z,0
2017-03-12T03:10:22.437Z,0
2017-03-12T03:11:03.066Z,0
2017-03-12T03:11:43.717Z,0
2017-03-12T03:12:24.372Z,0
2017-03-12T03:13:05.022Z,0
2017-03-12T03:13:45.679Z,0
2017-03-12T03:14:26.331Z,0
2017-03-12T03:15:07.014Z,0
2017-03-12T03:15:47.633Z,0
2017-03-12T03:16:28.290Z,0
2017-03-12T03:17:08.944Z,0
2017-03-12T03:17:49.592Z,0
2017-03-12T03:18:30.251Z,0
2017-03-12T03:19:10.910Z,0
2017-03-12T03:19:51.562Z,0
2017-03-12T03:20:32.217Z,0
2017-03-12T03:21:12.859Z,0
2017-03-12T03:21:53.510Z,0
2017-03-12T03:22:34.167Z,0
2017-03-12T03:23:14.816Z,0
2017-03-12T03:23:55.375Z,0
2017-03-12T03:24:35.975Z,0
2017-03-12T03:25:16.626Z,0
2017-03-12T03:25:57.223Z,0
2017-03-12T03:26:37.880Z,0
2017-03-12T03:27:18.459Z,0
2017-03-12T03:27:59.031Z,0
2017-03-12T03:28:39.627Z,0
2017-03-12T03:29:20.278Z,0
2017-03-12T03:30:00.935Z,0
2017-03-12T03:30:41.593Z,0
2017-03-12T03:31:22.136Z,0
2017-03-12T03:32:03.714Z,0
2017-03-12T03:32:44.368Z,0
2017-03-12T03:33:25.024Z,0
2017-03-12T03:34:05.678Z,0
2017-03-12T03:34:46.331Z,0
2017-03-12T03:35:26.983Z,0
2017-03-12T03:36:07.633Z,0
2017-03-12T03:36:48.284Z,0
2017-03-12T03:37:28.836Z,0
2017-03-12T03:38:09.490Z,0
2017-03-12T03:38:50.148Z,0
2017-03-12T03:39:30.723Z,0
2017-03-12T03:40:11.393Z,0
2017-03-12T03:40:51.991Z,0
2017-03-12T03:41:32.648Z,0
2017-03-12T03:42:13.208Z,0
2017-03-12T03:42:53.832Z,0
2017-03-12T03:43:34.403Z,0
2017-03-12T03:44:15.062Z,0
2017-03-12T03:44:55.746Z,0
2017-03-12T03:45:36.370Z,0
2017-03-12T03:46:17.039Z,0
2017-03-12T03:46:57.681Z,0
2017-03-12T03:47:38.332Z,0
2017-03-12T03:48:18.998Z,0
2017-03-12T03:48:59.643Z,0
2017-03-12T03:49:40.283Z,0
2017-03-12T03:50:20.938Z,0
2017-03-12T03:51:01.599Z,0
2017-03-12T03:51:42.239Z,0
2017-03-12T03:52:22.902Z,0
2017-03-12T03:53:03.551Z,0
2017-03-12T03:53:44.204Z,0
2017-03-12T03:54:24.870Z,0
2017-03-12T03:55:05.441Z,0
2017-03-12T03:55:47.029Z,0
2017-03-12T03:56:27.651Z,0
2017-03-12T03:57:08.285Z,0
2017-03-12T03:57:48.839Z,0
2017-03-12T03:58:29.437Z,0
2017-03-12T03:59:10.052Z,0
2017-03-12T03:59:50.703Z,0
2017-03-12T04:00:31.344Z,0
2017-03-12T04:01:12.006Z,0
2017-03-12T04:01:52.658Z,0
2017-03-12T04:02:33.306Z,0
2017-03-12T04:03:13.960Z,0
2017-03-12T04:03:54.610Z,0
2017-03-12T04:04:35.266Z,0
2017-03-12T04:05:15.913Z,0
2017-03-12T04:05:56.567Z,0
2017-03-12T04:06:38.974Z,0
2017-03-12T04:07:19.626Z,0
2017-03-12T04:08:00.278Z,0
2017-03-12T04:08:40.925Z,0
2017-03-12T04:09:21.576Z,0
2017-03-12T04:10:02.167Z,0
2017-03-12T04:10:42.783Z,0
2017-03-12T04:11:23.431Z,0
2017-03-12T04:12:04.018Z,0
2017-03-12T04:12:45.652Z,0
2017-03-12T04:13:26.310Z,0
2017-03-12T04:14:06.868Z,0
2017-03-12T04:14:47.538Z,0
2017-03-12T04:15:28.176Z,0
2017-03-12T04:16:08.758Z,0
2017-03-12T04:16:49.371Z,0
2017-03-12T04:17:30.024Z,0
2017-03-12T04:18:10.604Z,0
2017-03-12T04:18:51.217Z,0
2017-03-12T04:19:31.883Z,0
2017-03-12T04:20:12.532Z,0
2017-03-12T04:20:53.192Z,0
2017-03-12T04:21:33.844Z,0
2017-03-12T04:22:14.492Z,0
2017-03-12T04:22:55.142Z,0
2017-03-12T04:23:35.800Z,0
2017-03-12T04:24:16.461Z,0
2017-03-12T04:24:57.036Z,0
2017-03-12T04:25:37.701Z,0
2017-03-12T04:26:18.305Z,0
2017-03-12T04:26:58.962Z,0
2017-03-12T04:27:39.531Z,0
2017-03-12T04:28:20.131Z,0
2017-03-12T04:29:00.737Z,0
2017-03-12T04:29:41.376Z,0
2017-03-12T04:30:21.945Z,0
2017-03-12T04:31:02.520Z,0
2017-03-12T04:31:43.150Z,0
2017-03-12T04:32:23.777Z,0
2017-03-12T04:33:04.340Z,0
2017-03-12T04:33:44.936Z,0
2017-03-12T04:34:25.543Z,0
2017-03-12T04:35:06.116Z,0
2017-03-12T04:35:46.736Z,0
2017-03-12T04:36:27.406Z,0
2017-03-12T04:37:08.045Z,0
2017-03-12T04:37:48.698Z,0
2017-03-12T04:38:29.364Z,0
2017-03-12T04:39:10.004Z,0
2017-03-12T04:39:50.582Z,0
2017-03-12T04:40:31.247Z,0
2017-03-12T04:41:11.857Z,0
2017-03-12T04:41:52.512Z,0
2017-03-12T04:42:33.100Z,0
2017-03-12T04:43:13.770Z,0
2017-03-12T04:43:54.365Z,0
2017-03-12T04:44:35.031Z,0
2017-03-12T04:45:15.607Z,0
2017-03-12T04:45:56.263Z,0
2017-03-12T04:46:36.874Z,0
2017-03-12T04:47:18.559Z,0
2017-03-12T04:47:59.124Z,0
2017-03-12T04:48:39.714Z,0
2017-03-12T04:49:20.318Z,0
2017-03-12T04:50:00.960Z,0
2017-03-12T04:50:41.495Z,0
2017-03-12T04:51:22.141Z,0
2017-03-12T04:52:02.724Z,0
2017-03-12T04:52:43.371Z,0
2017-03-12T04:53:23.950Z,0
2017-03-12T04:54:04.653Z,0
2017-03-12T04:54:45.226Z,0
2017-03-12T04:55:25.882Z,0
2017-03-12T04:56:06.529Z,0
2017-03-12T04:56:47.185Z,0
2017-03-12T04:57:27.845Z,0
2017-03-12T04:58:08.499Z,0
2017-03-12T04:58:49.145Z,0
2017-03-12T04:59:29.796Z,0
2017-03-12T05:00:10.451Z,0
2017-03-12T05:00:51.096Z,0
2017-03-12T05:01:31.765Z,0
2017-03-12T05:02:12.400Z,0
2017-03-12T05:02:53.055Z,0
2017-03-12T05:03:33.709Z,0
2017-03-12T05:04:14.355Z,0
2017-03-12T05:04:54.927Z,0
2017-03-12T05:05:35.521Z,0
2017-03-12T05:06:16.109Z,0
2017-03-12T05:06:56.786Z,0
2017-03-12T05:07:37.357Z,0
2017-03-12T05:08:18.034Z,0
2017-03-12T05:08:58.630Z,0
2017-03-12T05:09:39.282Z,0
2017-03-12T05:10:19.851Z,0
2017-03-12T05:11:00.430Z,0
2017-03-12T05:11:41.036Z,0
2017-03-12T05:12:21.696Z,0
2017-03-12T05:13:02.251Z,0
2017-03-12T05:13:42.969Z,0
2017-03-12T05:14:23.557Z,0
2017-03-12T05:15:04.192Z,0
2017-03-12T05:15:44.852Z,0
2017-03-12T05:16:25.500Z,0
2017-03-12T05:17:06.189Z,0
2017-03-12T05:17:46.809Z,4
2017-03-12T05:18:27.463Z,4
2017-03-12T05:19:08.120Z,4
2017-03-12T05:19:48.691Z,4
2017-03-12T05:20:29.315Z,4
2017-03-12T05:21:09.982Z,0
2017-03-12T05:21:50.553Z,0
2017-03-12T05:22:31.184Z,4
2017-03-12T05:23:11.829Z,4
2017-03-12T05:23:52.412Z,4
2017-03-12T05:24:33.044Z,8
2017-03-12T05:25:13.690Z,4
2017-03-12T05:25:54.293Z,4
2017-03-12T05:26:34.944Z,8
2017-03-12T05:27:15.540Z,8
2017-03-12T05:27:56.192Z,8
2017-03-12T05:28:36.800Z,12
2017-03-12T05:29:17.451Z,8
2017-03-12T05:29:58.055Z,12
2017-03-12T05:30:38.711Z,12
2017-03-12T05:31:19.279Z,12
2017-03-12T05:31:59.911Z,16
2017-03-12T05:32:40.557Z,16
2017-03-12T05:33:21.341Z,20
2017-03-12T05:34:01.977Z,20
2017-03-12T05:34:42.629Z,24
2017-03-12T05:35:23.189Z,28
2017-03-12T05:36:03.868Z,28
2017-03-12T05:36:44.484Z,36
2017-03-12T05:37:25.153Z,36
2017-03-12T05:38:05.702Z,40
2017-03-12T05:38:46.411Z,44
2017-03-12T05:39:27.098Z,48
2017-03-12T05:40:07.748Z,52
2017-03-12T05:40:48.397Z,56
2017-03-12T05:41:29.057Z,60
2017-03-12T05:42:09.704Z,68
2017-03-12T05:42:51.387Z,76
2017-03-12T05:43:32.040Z,84
2017-03-12T05:44:12.686Z,92
2017-03-12T05:44:53.553Z,96
2017-03-12T05:45:34.188Z,108
2017-03-12T05:46:14.773Z,116
2017-03-12T05:46:55.455Z,124
2017-03-12T05:47:36.058Z,136
2017-03-12T05:48:16.702Z,144
2017-03-12T05:48:57.282Z,152
2017-03-12T05:49:37.965Z,164
2017-03-12T05:50:18.669Z,176
2017-03-12T05:50:59.321Z,188
2017-03-12T05:51:39.971Z,204
2017-03-12T05:52:20.621Z,216
2017-03-12T05:53:01.282Z,228
2017-03-12T05:53:41.925Z,244
2017-03-12T05:54:22.589Z,252
2017-03-12T05:55:03.234Z,268
2017-03-12T05:55:43.889Z,280
2017-03-12T05:56:24.544Z,292
2017-03-12T05:57:05.195Z,308
2017-03-12T05:57:45.848Z,320
2017-03-12T05:58:26.500Z,340
2017-03-12T05:59:07.152Z,356
2017-03-12T05:59:47.801Z,376
2017-03-12T06:00:28.355Z,396
2017-03-12T06:01:08.944Z,416
2017-03-12T06:01:49.549Z,440
2017-03-12T06:02:30.211Z,464
2017-03-12T06:03:10.772Z,484
2017-03-12T06:03:51.365Z,512
2017-03-12T06:04:31.957Z,536
2017-03-12T06:05:12.621Z,560
2017-03-12T06:05:53.197Z,584
2017-03-12T06:06:33.824Z,604
2017-03-12T06:07:14.479Z,632
2017-03-12T06:07:55.038Z,656
2017-03-12T06:08:35.677Z,684
2017-03-12T06:09:16.364Z,708
2017-03-12T06:09:56.932Z,736
2017-03-12T06:10:37.538Z,760
2017-03-12T06:11:18.186Z,784
2017-03-12T06:11:58.846Z,808
2017-03-12T06:12:39.503Z,840
2017-03-12T06:13:20.167Z,864
2017-03-12T06:14:00.805Z,888
2017-03-12T06:14:41.476Z,916
2017-03-12T06:15:22.039Z,940
2017-03-12T06:16:02.656Z,968
2017-03-12T06:16:43.320Z,996
2017-03-12T06:17:23.965Z,1028
2017-03-12T06:18:04.613Z,1052
2017-03-12T06:18:45.266Z,1084
2017-03-12T06:19:25.932Z,1112
2017-03-12T06:20:06.573Z,1144
2017-03-12T06:20:47.234Z,1172
2017-03-12T06:21:27.788Z,1200
2017-03-12T06:22:08.475Z,1228
2017-03-12T06:22:49.105Z,1256
2017-03-12T06:23:29.775Z,1284
2017-03-12T06:24:10.327Z,1316
2017-03-12T06:24:50.896Z,1344
2017-03-12T06:25:31.515Z,1376
2017-03-12T06:26:12.151Z,1404
2017-03-12T06:26:52.734Z,1432
2017-03-12T06:27:33.395Z,1456
2017-03-12T06:28:14.003Z,1484
2017-03-12T06:28:54.657Z,1512
2017-03-12T06:29:35.207Z,1540
2017-03-12T06:30:16.004Z,1568
2017-03-12T06:30:56.658Z,1596
2017-03-12T06:31:37.324Z,1620
2017-03-12T06:32:17.966Z,1648
2017-03-12T06:32:58.629Z,1676
2017-03-12T06:33:39.279Z,1704
2017-03-12T06:34:19.925Z,1728
2017-03-12T06:35:00.586Z,1756
2017-03-12T06:35:41.288Z,1776
2017-03-12T06:36:21.947Z,1800
2017-03-12T06:37:02.592Z,1824
2017-03-12T06:37:43.249Z,1848
2017-03-12T06:38:23.898Z,1868
2017-03-12T06:39:04.545Z,1892
2017-03-12T06:39:45.198Z,1912
2017-03-12T06:40:25.857Z,1932
2017-03-12T06:41:06.503Z,1948
2017-03-12T06:41:47.170Z,1968
2017-03-12T06:42:28.840Z,1988
2017-03-12T06:43:09.502Z,2008
2017-03-12T06:43:50.147Z,2028
2017-03-12T06:44:30.807Z,2052
2017-03-12T06:45:11.365Z,2072
2017-03-12T06:45:51.944Z,2088
2017-03-12T06:46:32.556Z,2108
2017-03-12T06:47:13.202Z,2124
2017-03-12T06:47:53.792Z,2144
2017-03-12T06:48:34.466Z,2160
2017-03-12T06:49:15.092Z,2180
2017-03-12T06:49:55.716Z,2204
2017-03-12T06:50:36.293Z,2224
2017-03-12T06:51:16.872Z,2248
2017-03-12T06:51:57.475Z,2272
2017-03-12T06:52:38.123Z,2292
2017-03-12T06:53:18.680Z,2320
2017-03-12T06:53:59.381Z,2340
2017-03-12T06:54:39.987Z,2368
2017-03-12T06:55:20.628Z,2396
2017-03-12T06:56:01.204Z,2424
2017-03-12T06:56:41.787Z,2456
2017-03-12T06:57:22.345Z,2484
2017-03-12T06:58:02.941Z,2512
2017-03-12T06:58:43.592Z,2536
2017-03-12T06:59:24.155Z,2560
2017-03-12T07:00:04.849Z,2584
2017-03-12T07:00:45.448Z,2604
2017-03-12T07:01:26.028Z,2632
2017-03-12T07:02:06.649Z,2648
2017-03-12T07:02:47.302Z,2668
2017-03-12T07:03:27.874Z,2688
2017-03-12T07:04:10.073Z,2700
2017-03-12T07:04:50.670Z,2724
2017-03-12T07:05:31.237Z,2740
2017-03-12T07:06:11.869Z,2760
2017-03-12T07:06:52.527Z,2776
2017-03-12T07:07:33.104Z,2796
2017-03-12T07:08:13.721Z,2812
2017-03-12T07:08:55.404Z,2832
2017-03-12T07:09:35.991Z,2848
2017-03-12T07:10:16.590Z,2872
2017-03-12T07:10:57.256Z,2892
2017-03-12T07:11:37.825Z,2912
2017-03-12T07:12:18.464Z,2932
2017-03-12T07:12:59.113Z,2948
2017-03-12T07:13:39.684Z,2968
2017-03-12T07:14:20.262Z,2964
2017-03-12T07:15:00.903Z,3008
2017-03-12T07:15:41.438Z,3028
2017-03-12T07:16:22.081Z,3032
2017-03-12T07:17:03.759Z,3064
2017-03-12T07:17:44.326Z,3056
2017-03-12T07:18:24.940Z,3068
2017-03-12T07:19:05.613Z,3080
2017-03-12T07:19:46.158Z,3100
2017-03-12T07:20:26.804Z,3116
2017-03-12T07:21:07.478Z,3136
2017-03-12T07:21:48.118Z,3168
2017-03-12T07:22:28.765Z,3188
2017-03-12T07:23:09.395Z,3220
2017-03-12T07:23:50.069Z,3252
2017-03-12T07:24:30.720Z,3268
2017-03-12T07:25:11.353Z,3276
2017-03-12T07:25:52.042Z,3280
2017-03-12T07:26:32.667Z,3292
2017-03-12T07:27:13.324Z,3308
2017-03-12T07:27:54.007Z,3328
2017-03-12T07:28:34.628Z,3336
2017-03-12T07:29:15.282Z,3364
2017-03-12T07:29:56.960Z,3380
2017-03-12T07:30:37.524Z,3400
2017-03-12T07:31:18.132Z,3424
2017-03-12T07:31:58.723Z,3448
2017-03-12T07:32:39.364Z,3504
2017-03-12T07:33:19.931Z,3496
2017-03-12T07:34:00.562Z,3512
2017-03-12T07:34:41.137Z,3536
2017-03-12T07:35:21.767Z,3568
2017-03-12T07:36:02.469Z,3572
2017-03-12T07:36:44.105Z,3612
2017-03-12T07:37:24.751Z,3632
2017-03-12T07:38:05.403Z,3648
2017-03-12T07:38:46.064Z,3672
2017-03-12T07:39:26.719Z,3772
2017-03-12T07:40:07.356Z,3788
2017-03-12T07:40:48.011Z,3728
2017-03-12T07:41:28.664Z,3744
2017-03-12T07:42:09.331Z,3760
2017-03-12T07:42:49.973Z,3776
2017-03-12T07:43:30.632Z,3788
2017-03-12T07:44:11.277Z,3808
2017-03-12T07:44:51.928Z,3828
2017-03-12T07:45:32.582Z,3852
2017-03-12T07:46:13.243Z,3856
2017-03-12T07:46:53.813Z,3872
2017-03-12T07:47:34.442Z,3892
2017-03-12T07:48:15.090Z,3916
2017-03-12T07:48:56.777Z,3928
2017-03-12T07:49:37.367Z,3952
2017-03-12T07:50:18.040Z,3964
2017-03-12T07:50:58.702Z,3988
2017-03-12T07:51:39.339Z,4004
2017-03-12T07:52:19.997Z,4020
2017-03-12T07:53:00.656Z,4036
2017-03-12T07:53:42.359Z,4060
2017-03-12T07:54:22.989Z,4080
2017-03-12T07:55:03.649Z,4104
2017-03-12T07:55:44.355Z,4128
2017-03-12T07:56:25.004Z,4148
2017-03-12T07:57:05.659Z,4128
2017-03-12T07:57:46.278Z,4180
2017-03-12T07:58:26.961Z,4196
2017-03-12T07:59:07.623Z,4200
2017-03-12T07:59:48.269Z,4224
2017-03-12T08:00:28.910Z,4244
2017-03-12T08:01:09.580Z,4264
2017-03-12T08:01:50.227Z,4272
2017-03-12T08:02:30.889Z,4292
2017-03-12T08:03:11.551Z,4308
2017-03-12T08:03:52.193Z,4320
2017-03-12T08:04:32.840Z,4340
2017-03-12T08:05:14.521Z,4356
2017-03-12T08:05:55.168Z,4368
2017-03-12T08:06:35.817Z,4388
2017-03-12T08:07:16.477Z,4380
2017-03-12T08:07:57.157Z,4420
2017-03-12T08:08:37.792Z,4424
2017-03-12T08:09:18.433Z,4428
2017-03-12T08:09:59.088Z,4436
2017-03-12T08:10:39.658Z,4440
2017-03-12T08:11:20.387Z,4436
2017-03-12T08:12:01.052Z,4464
2017-03-12T08:12:41.694Z,4476
2017-03-12T08:13:22.244Z,4488
2017-03-12T08:14:02.873Z,4516
2017-03-12T08:14:43.562Z,4524
2017-03-12T08:15:24.213Z,4548
2017-03-12T08:16:04.779Z,4568
2017-03-12T08:16:46.377Z,4584
2017-03-12T08:17:27.095Z,4596
2017-03-12T08:18:07.746Z,4608
2017-03-12T08:18:48.311Z,4628
2017-03-12T08:19:29.009Z,4644
2017-03-12T08:20:09.707Z,4660
2017-03-12T08:20:50.354Z,4672
2017-03-12T08:21:31.011Z,4684
2017-03-12T08:22:11.658Z,4696
2017-03-12T08:22:52.308Z,4704
2017-03-12T08:23:32.972Z,4716
2017-03-12T08:24:13.621Z,4728
2017-03-12T08:24:54.265Z,4740
2017-03-12T08:25:34.929Z,4748
2017-03-12T08:26:15.580Z,4768
2017-03-12T08:26:56.225Z,4776
2017-03-12T08:27:36.889Z,4784
2017-03-12T08:28:17.535Z,4796
2017-03-12T08:28:58.193Z,4804
2017-03-12T08:29:39.869Z,4796
2017-03-12T08:30:20.527Z,4820
2017-03-12T08:31:01.174Z,4836
2017-03-12T08:31:41.826Z,4848
2017-03-12T08:32:22.446Z,4848
2017-03-12T08:33:04.046Z,4856
2017-03-12T08:33:44.721Z,4868
2017-03-12T08:34:27.411Z,4876
2017-03-12T08:35:08.029Z,4884
2017-03-12T08:35:48.595Z,4888
2017-03-12T08:36:29.229Z,4904
2017-03-12T08:37:09.901Z,4924
2017-03-12T08:37:50.547Z,4932
2017-03-12T08:38:31.113Z,4952
2017-03-12T08:39:11.864Z,4960
2017-03-12T08:39:52.499Z,4968
2017-03-12T08:40:33.162Z,4976
2017-03-12T08:41:13.812Z,4988
2017-03-12T08:41:54.470Z,5004
2017-03-12T08:42:35.116Z,4992
2017-03-12T08:43:15.771Z,5024
2017-03-12T08:43:56.428Z,5040
2017-03-12T08:44:37.074Z,5056
2017-03-12T08:45:17.726Z,5072
2017-03-12T08:45:58.383Z,5084
2017-03-12T08:46:39.046Z,5108
2017-03-12T08:47:19.689Z,5128
2017-03-12T08:48:00.336Z,5160
2017-03-12T08:48:42.006Z,5164
2017-03-12T08:49:22.672Z,5212
2017-03-12T08:50:03.339Z,5248
2017-03-12T08:50:43.979Z,5288
2017-03-12T08:51:24.626Z,5320
2017-03-12T08:52:05.285Z,5352
2017-03-12T08:52:45.940Z,5324
2017-03-12T08:53:26.593Z,5500
2017-03-12T08:54:07.251Z,5464
2017-03-12T08:54:47.898Z,5500
2017-03-12T08:55:28.558Z,5552
2017-03-12T08:56:09.205Z,5592
2017-03-12T08:56:49.857Z,5652
2017-03-12T08:57:30.524Z,5696
2017-03-12T08:58:11.159Z,5740
2017-03-12T08:58:51.816Z,5772
2017-03-12T08:59:32.468Z,5832
2017-03-12T09:00:13.134Z,5892
2017-03-12T09:00:53.775Z,5928
2017-03-12T09:01:34.430Z,5988
2017-03-12T09:02:15.074Z,6044
2017-03-12T09:02:55.736Z,6080
2017-03-12T09:03:36.378Z,6148
2017-03-12T09:04:17.033Z,6208
2017-03-12T09:04:57.690Z,6260
2017-03-12T09:05:38.264Z,6304
2017-03-12T09:06:18.948Z,6388
2017-03-12T09:06:59.645Z,6464
2017-03-12T09:07:40.297Z,6524
2017-03-12T09:08:20.862Z,6584
2017-03-12T09:09:01.446Z,6652
2017-03-12T09:09:42.177Z,6736
2017-03-12T09:10:22.828Z,6748
2017-03-12T09:11:03.398Z,6788
2017-03-12T09:11:44.086Z,6812
2017-03-12T09:12:24.742Z,6896
2017-03-12T09:13:05.421Z,6940
2017-03-12T09:13:45.989Z,6972
2017-03-12T09:14:26.658Z,7020
2017-03-12T09:15:07.326Z,7072
2017-03-12T09:15:47.930Z,7104
2017-03-12T09:16:28.511Z,7132
2017-03-12T09:17:09.187Z,7148
2017-03-12T09:17:49.793Z,7176
2017-03-12T09:18:30.437Z,7176
2017-03-12T09:19:11.004Z,7112
2017-03-12T09:19:51.697Z,7132
2017-03-12T09:20:32.305Z,7184
2017-03-12T09:21:12.949Z,7192
2017-03-12T09:21:53.608Z,7164
2017-03-12T09:22:34.261Z,7120
2017-03-12T09:23:14.912Z,7148
2017-03-12T09:23:55.563Z,7112
2017-03-12T09:24:36.219Z,7228
2017-03-12T09:25:16.778Z,7232
2017-03-12T09:25:57.597Z,7248
2017-03-12T09:26:38.178Z,7188
2017-03-12T09:27:18.830Z,7256
2017-03-12T09:27:59.374Z,7248
2017-03-12T09:28:39.982Z,7232
2017-03-12T09:29:20.584Z,7192
2017-03-12T09:30:01.247Z,7104
2017-03-12T09:30:41.837Z,7156
2017-03-12T09:31:22.439Z,7240
2017-03-12T09:32:03.111Z,7164
2017-03-12T09:32:43.716Z,7120
2017-03-12T09:33:24.357Z,7204
2017-03-12T09:34:04.949Z,7064
2017-03-12T09:34:45.603Z,7080
2017-03-12T09:35:26.189Z,6824
2017-03-12T09:36:06.864Z,7148
2017-03-12T09:36:47.577Z,7108
2017-03-12T09:37:28.230Z,6944